createdAt,value
2018-05-31T00:00:56.635Z,20.20
2018-05-31T00:03:29.661Z,20.10
2018-05-31T00:06:02.052Z,20.10
2018-05-31T00:08:34.326Z,20.10
2018-05-31T00:11:06.642Z,20.00
2018-05-31T00:13:38.925Z,20.00
2018-05-31T00:16:11.261Z,20.00
2018-05-31T00:18:44.288Z,20.10
2018-05-31T00:21:16.838Z,20.00
2018-05-31T00:23:49.225Z,20.00
2018-05-31T00:26:21.603Z,20.00
2018-05-31T00:28:53.974Z,20.00
2018-05-31T00:31:26.419Z,20.00
2018-05-31T00:33:59.476Z,20.10
2018-05-31T00:36:31.828Z,20.10
2018-05-31T00:39:04.196Z,20.10
2018-05-31T00:41:36.500Z,20.10
2018-05-31T00:44:08.795Z,20.00
2018-05-31T00:46:41.934Z,19.90
2018-05-31T00:49:14.159Z,19.90
2018-05-31T00:51:47.223Z,20.00
2018-05-31T00:54:19.561Z,20.00
2018-05-31T00:56:52.025Z,20.00
2018-05-31T00:59:24.342Z,19.90
2018-05-31T01:01:56.703Z,19.90
2018-05-31T01:04:29.090Z,19.80
2018-05-31T01:07:01.402Z,19.90
2018-05-31T01:09:33.835Z,19.80
2018-05-31T01:12:06.160Z,19.80
2018-05-31T01:14:38.463Z,19.80
2018-05-31T01:17:10.803Z,19.80
2018-05-31T01:19:43.139Z,19.70
2018-05-31T01:22:16.230Z,19.60
2018-05-31T01:24:48.544Z,19.60
2018-05-31T01:27:21.010Z,19.60
2018-05-31T01:29:53.327Z,19.50
2018-05-31T01:32:25.688Z,19.50
2018-05-31T01:34:57.975Z,19.40
2018-05-31T01:37:30.316Z,19.40
2018-05-31T01:40:02.682Z,19.40
2018-05-31T01:42:35.002Z,19.40
2018-05-31T01:45:07.335Z,19.40
2018-05-31T01:47:39.669Z,19.30
2018-05-31T01:50:11.970Z,19.20
2018-05-31T01:52:44.269Z,19.20
2018-05-31T01:55:16.642Z,19.20
2018-05-31T01:57:49.044Z,19.20
2018-05-31T02:00:22.237Z,19.10
2018-05-31T02:02:55.446Z,19.10
2018-05-31T02:05:27.726Z,19.10
2018-05-31T02:08:00.071Z,19.10
2018-05-31T02:10:32.340Z,19.10
2018-05-31T02:13:05.411Z,19.10
2018-05-31T02:15:37.678Z,19.00
2018-05-31T02:18:09.980Z,19.10
2018-05-31T02:20:43.037Z,19.00
2018-05-31T02:23:15.422Z,19.00
2018-05-31T02:25:47.778Z,19.00
2018-05-31T02:28:20.336Z,19.00
2018-05-31T02:30:52.654Z,19.00
2018-05-31T02:33:25.771Z,18.90
2018-05-31T02:35:58.032Z,18.80
2018-05-31T02:38:30.299Z,18.70
2018-05-31T02:41:02.710Z,18.70
2018-05-31T02:43:35.053Z,18.70
2018-05-31T02:46:07.468Z,18.80
2018-05-31T02:48:39.833Z,18.80
2018-05-31T02:51:12.168Z,18.80
2018-05-31T02:53:44.552Z,18.80
2018-05-31T02:56:16.867Z,18.80
2018-05-31T02:58:49.242Z,18.80
2018-05-31T03:01:21.543Z,18.80
2018-05-31T03:03:54.747Z,18.90
2018-05-31T03:06:26.993Z,18.90
2018-05-31T03:08:59.285Z,18.90
2018-05-31T03:11:31.605Z,18.80
2018-05-31T03:14:04.035Z,18.80
2018-05-31T03:16:36.364Z,18.70
2018-05-31T03:19:08.769Z,18.70
2018-05-31T03:21:41.869Z,18.70
2018-05-31T03:24:15.028Z,18.70
2018-05-31T03:26:47.357Z,18.70
2018-05-31T03:29:19.704Z,18.70
2018-05-31T03:31:52.038Z,18.60
2018-05-31T03:34:24.380Z,18.70
2018-05-31T03:36:56.746Z,18.80
2018-05-31T03:39:29.076Z,18.70
2018-05-31T03:42:02.170Z,18.80
2018-05-31T03:44:35.331Z,18.80
2018-05-31T03:47:07.736Z,18.80
2018-05-31T03:49:40.858Z,18.70
2018-05-31T03:52:13.192Z,18.70
2018-05-31T03:54:46.330Z,18.70
2018-05-31T03:57:18.748Z,18.70
2018-05-31T03:59:51.825Z,18.70
2018-05-31T04:02:24.174Z,18.70
2018-05-31T04:04:56.520Z,18.70
2018-05-31T04:07:28.860Z,18.70
2018-05-31T04:10:02.005Z,18.80
2018-05-31T04:12:34.280Z,18.80
2018-05-31T04:15:06.554Z,18.90
2018-05-31T04:17:38.900Z,18.90
2018-05-31T04:20:11.367Z,18.90
2018-05-31T04:22:43.794Z,18.90
2018-05-31T04:25:16.193Z,19.10
2018-05-31T04:27:49.206Z,19.30
2018-05-31T04:30:21.481Z,19.30
2018-05-31T04:32:53.815Z,19.30
2018-05-31T04:35:26.149Z,19.30
2018-05-31T04:37:58.453Z,19.20
2018-05-31T04:40:30.800Z,19.30
2018-05-31T04:43:03.162Z,19.30
2018-05-31T04:45:35.482Z,19.40
2018-05-31T04:48:08.676Z,19.50
2018-05-31T04:50:41.776Z,19.60
2018-05-31T04:53:14.877Z,19.60
2018-05-31T04:55:47.403Z,19.60
2018-05-31T04:58:19.907Z,19.70
2018-05-31T05:00:53.150Z,19.80
2018-05-31T05:03:25.491Z,19.80
2018-05-31T05:05:57.908Z,20.00
2018-05-31T05:08:30.240Z,20.00
2018-05-31T05:11:02.683Z,20.20
2018-05-31T05:13:35.084Z,20.20
2018-05-31T05:16:07.460Z,20.20
2018-05-31T05:18:39.831Z,20.30
2018-05-31T05:21:12.909Z,20.40
2018-05-31T05:23:45.138Z,20.40
2018-05-31T05:26:17.460Z,20.50
2018-05-31T05:28:50.454Z,20.60
2018-05-31T05:31:22.823Z,20.60
2018-05-31T05:33:55.151Z,20.70
2018-05-31T05:36:27.481Z,20.80
2018-05-31T05:38:59.785Z,20.90
2018-05-31T05:41:32.110Z,21.10
2018-05-31T05:44:04.432Z,21.10
2018-05-31T05:46:36.893Z,21.10
2018-05-31T05:49:09.316Z,21.20
2018-05-31T05:51:42.882Z,21.40
2018-05-31T05:54:15.165Z,21.40
2018-05-31T05:56:47.557Z,21.50
2018-05-31T05:59:20.632Z,21.50
2018-05-31T06:01:52.989Z,21.50
2018-05-31T06:04:25.290Z,21.70
2018-05-31T06:06:57.592Z,21.80
2018-05-31T06:09:29.961Z,21.80
2018-05-31T06:12:02.300Z,22.00
2018-05-31T06:14:35.391Z,22.30
2018-05-31T06:17:07.672Z,22.20
2018-05-31T06:19:40.757Z,22.20
2018-05-31T06:22:13.092Z,22.20
2018-05-31T06:24:45.382Z,22.40
2018-05-31T06:27:17.790Z,22.60
2018-05-31T06:29:50.142Z,22.80
2018-05-31T06:32:23.193Z,24.10
2018-05-31T06:34:55.568Z,24.10
2018-05-31T06:37:28.025Z,25.30
2018-05-31T06:40:01.034Z,27.50
2018-05-31T06:42:33.312Z,27.40
2018-05-31T06:45:05.560Z,27.40
2018-05-31T06:47:37.951Z,28.00
2018-05-31T06:50:10.440Z,27.80
2018-05-31T06:52:42.915Z,27.80
2018-05-31T06:55:15.320Z,28.00
2018-05-31T06:57:48.484Z,29.40
2018-05-31T07:00:20.755Z,29.30
2018-05-31T07:02:53.112Z,30.20
2018-05-31T07:05:25.384Z,30.70
2018-05-31T07:07:57.743Z,30.90
2018-05-31T07:10:30.089Z,31.60
2018-05-31T07:13:02.427Z,32.00
2018-05-31T07:15:34.762Z,31.40
2018-05-31T07:18:07.113Z,32.00
2018-05-31T07:20:39.508Z,32.30
2018-05-31T07:23:11.816Z,32.70
2018-05-31T07:25:44.150Z,32.90
2018-05-31T07:28:16.479Z,32.90
2018-05-31T07:30:49.638Z,32.50
2018-05-31T07:33:22.003Z,32.50
2018-05-31T07:35:54.362Z,32.90
2018-05-31T07:38:26.690Z,33.10
2018-05-31T07:40:59.822Z,34.40
2018-05-31T07:43:32.130Z,34.30
2018-05-31T07:46:04.405Z,34.40
2018-05-31T07:48:36.702Z,34.60
2018-05-31T07:51:09.021Z,34.60
2018-05-31T07:53:41.316Z,34.70
2018-05-31T07:56:13.656Z,33.50
2018-05-31T07:58:46.000Z,33.50
2018-05-31T08:01:18.368Z,34.20
2018-05-31T08:03:50.724Z,34.40
2018-05-31T08:06:23.755Z,34.40
2018-05-31T08:08:56.049Z,34.40
2018-05-31T08:11:28.413Z,34.70
2018-05-31T08:14:00.814Z,35.30
2018-05-31T08:16:33.161Z,35.90
2018-05-31T08:19:05.446Z,36.00
2018-05-31T08:21:37.740Z,36.20
2018-05-31T08:24:10.905Z,36.90
2018-05-31T08:26:43.201Z,36.80
2018-05-31T08:29:15.557Z,36.70
2018-05-31T08:31:47.907Z,37.00
2018-05-31T08:34:20.322Z,36.80
2018-05-31T08:36:53.376Z,36.90
2018-05-31T08:39:25.763Z,36.90
2018-05-31T08:41:58.114Z,36.90
2018-05-31T08:44:30.454Z,36.90
2018-05-31T08:47:02.767Z,37.10
2018-05-31T08:49:35.146Z,37.40
2018-05-31T08:52:07.390Z,37.50
2018-05-31T08:54:39.772Z,37.10
2018-05-31T08:57:12.058Z,37.40
2018-05-31T08:59:44.347Z,37.60
2018-05-31T09:02:16.801Z,37.00
2018-05-31T09:04:49.289Z,37.00
2018-05-31T09:07:21.530Z,37.00
2018-05-31T09:09:53.943Z,36.70
2018-05-31T09:12:26.990Z,36.60
2018-05-31T09:14:59.321Z,36.60
2018-05-31T09:17:32.345Z,35.70
2018-05-31T09:20:04.800Z,35.70
2018-05-31T09:22:37.115Z,35.80
2018-05-31T09:25:09.514Z,36.10
2018-05-31T09:27:41.823Z,36.40
2018-05-31T09:30:14.140Z,36.60
2018-05-31T09:32:46.472Z,36.60
2018-05-31T09:35:18.916Z,35.80
2018-05-31T09:37:52.083Z,35.60
2018-05-31T09:40:24.465Z,35.50
2018-05-31T09:42:56.781Z,35.90
2018-05-31T09:45:29.118Z,35.30
2018-05-31T09:48:02.255Z,35.20
2018-05-31T09:50:34.584Z,35.20
2018-05-31T09:53:07.611Z,35.10
2018-05-31T09:55:39.951Z,35.00
2018-05-31T09:58:13.105Z,34.80
2018-05-31T10:00:45.427Z,34.70
2018-05-31T10:03:17.810Z,34.20
2018-05-31T10:05:50.153Z,33.40
2018-05-31T10:08:23.327Z,32.60
2018-05-31T10:10:55.603Z,32.60
2018-05-31T10:13:27.839Z,32.40
2018-05-31T10:16:00.161Z,32.30
2018-05-31T10:18:32.388Z,32.50
2018-05-31T10:21:04.759Z,32.50
2018-05-31T10:23:37.279Z,32.40
2018-05-31T10:26:10.447Z,32.20
2018-05-31T10:28:42.780Z,32.10
2018-05-31T10:31:15.231Z,31.90
2018-05-31T10:33:47.489Z,32.00
2018-05-31T10:36:20.544Z,31.80
2018-05-31T10:38:52.810Z,31.80
2018-05-31T10:41:25.090Z,31.80
2018-05-31T10:43:57.439Z,32.20
2018-05-31T10:46:29.923Z,32.10
2018-05-31T10:49:02.271Z,32.10
2018-05-31T10:51:34.679Z,32.10
2018-05-31T10:54:07.139Z,31.90
2018-05-31T10:56:39.523Z,32.10
2018-05-31T10:59:12.027Z,32.30
2018-05-31T11:01:44.343Z,32.00
2018-05-31T11:04:16.640Z,32.40
2018-05-31T11:06:49.163Z,32.30
2018-05-31T11:09:22.279Z,32.20
2018-05-31T11:11:54.634Z,32.20
2018-05-31T11:14:26.893Z,32.10
2018-05-31T11:16:59.245Z,32.20
2018-05-31T11:19:31.565Z,32.10
2018-05-31T11:22:03.986Z,32.00
2018-05-31T11:24:37.126Z,32.00
2018-05-31T11:27:09.472Z,32.00
2018-05-31T11:29:42.517Z,32.20
2018-05-31T11:32:14.989Z,32.20
2018-05-31T11:34:47.402Z,32.10
2018-05-31T11:37:19.702Z,32.30
2018-05-31T11:39:52.117Z,32.00
2018-05-31T11:42:24.546Z,31.70
2018-05-31T11:44:56.842Z,32.10
2018-05-31T11:47:29.286Z,32.00
2018-05-31T11:50:01.673Z,32.10
2018-05-31T11:52:34.053Z,32.20
2018-05-31T11:55:06.403Z,32.40
2018-05-31T11:57:39.648Z,32.20
2018-05-31T12:00:12.072Z,32.20
2018-05-31T12:02:44.341Z,32.30
2018-05-31T12:05:16.659Z,32.60
2018-05-31T12:07:49.058Z,32.30
2018-05-31T12:10:22.155Z,32.50
2018-05-31T12:12:55.224Z,32.50
2018-05-31T12:15:27.587Z,32.50
2018-05-31T12:17:59.935Z,32.40
2018-05-31T12:20:32.318Z,32.30
2018-05-31T12:23:04.652Z,31.90
2018-05-31T12:25:37.051Z,31.90
2018-05-31T12:28:09.380Z,31.70
2018-05-31T12:30:42.500Z,31.40
2018-05-31T12:33:14.833Z,31.30
2018-05-31T12:35:47.161Z,31.00
2018-05-31T12:38:19.571Z,31.20
2018-05-31T12:40:51.867Z,31.00
2018-05-31T12:43:25.058Z,30.80
2018-05-31T12:45:58.074Z,30.90
2018-05-31T12:48:30.431Z,30.90
2018-05-31T12:51:02.855Z,30.90
2018-05-31T12:53:35.207Z,31.10
2018-05-31T12:56:07.627Z,31.40
2018-05-31T12:58:40.994Z,31.50
2018-05-31T13:01:13.229Z,31.50
2018-05-31T13:03:45.657Z,31.30
2018-05-31T13:06:18.005Z,31.20
2018-05-31T13:08:50.342Z,31.30
2018-05-31T13:11:22.692Z,31.20
2018-05-31T13:13:55.058Z,31.00
2018-05-31T13:16:27.388Z,31.00
2018-05-31T13:18:59.714Z,30.90
2018-05-31T13:21:32.843Z,30.80
2018-05-31T13:24:05.317Z,30.80
2018-05-31T13:26:37.705Z,30.90
2018-05-31T13:29:10.089Z,31.00
2018-05-31T13:31:42.346Z,31.00
2018-05-31T13:34:14.747Z,31.00
2018-05-31T13:36:47.072Z,31.20
2018-05-31T13:39:19.381Z,31.40
2018-05-31T13:41:51.639Z,31.40
2018-05-31T13:44:24.022Z,31.50
2018-05-31T13:46:56.278Z,31.50
2018-05-31T13:49:28.666Z,31.60
2018-05-31T13:52:00.955Z,31.60
2018-05-31T13:54:34.062Z,31.30
2018-05-31T13:57:07.117Z,31.30
2018-05-31T13:59:39.514Z,31.30
2018-05-31T14:02:11.831Z,31.50
2018-05-31T14:04:44.237Z,31.30
2018-05-31T14:07:16.518Z,31.00
2018-05-31T14:09:48.859Z,30.90
2018-05-31T14:12:21.260Z,30.80
2018-05-31T14:14:53.668Z,30.60
2018-05-31T14:17:26.784Z,30.30
2018-05-31T14:19:59.209Z,30.30
2018-05-31T14:22:31.634Z,30.30
2018-05-31T14:25:03.993Z,30.30
2018-05-31T14:27:36.295Z,30.30
2018-05-31T14:30:08.627Z,30.30
2018-05-31T14:32:40.919Z,30.30
2018-05-31T14:35:13.907Z,30.40
2018-05-31T14:37:46.317Z,30.40
2018-05-31T14:40:18.677Z,30.30
2018-05-31T14:42:51.155Z,30.30
2018-05-31T14:45:23.485Z,30.30
2018-05-31T14:47:55.876Z,30.10
2018-05-31T14:50:28.303Z,30.10
2018-05-31T14:53:00.688Z,30.00
2018-05-31T14:55:33.627Z,30.00
2018-05-31T14:58:05.950Z,30.00
2018-05-31T15:00:39.075Z,30.00
2018-05-31T15:03:11.740Z,29.90
2018-05-31T15:05:44.043Z,30.00
2018-05-31T15:08:16.465Z,30.00
2018-05-31T15:10:49.509Z,30.00
2018-05-31T15:13:21.784Z,30.00
2018-05-31T15:15:54.202Z,30.00
2018-05-31T15:18:26.554Z,29.70
2018-05-31T15:20:59.548Z,29.20
2018-05-31T15:23:32.655Z,28.50
2018-05-31T15:26:05.810Z,27.90
2018-05-31T15:28:38.160Z,27.90
2018-05-31T15:31:10.542Z,27.40
2018-05-31T15:33:42.940Z,26.90
2018-05-31T15:36:15.323Z,26.30
2018-05-31T15:38:48.278Z,25.20
2018-05-31T15:41:20.675Z,25.20
2018-05-31T15:43:53.877Z,23.70
2018-05-31T15:46:27.020Z,23.30
2018-05-31T15:48:59.418Z,23.20
2018-05-31T15:51:31.745Z,22.90
2018-05-31T15:54:04.173Z,22.60
2018-05-31T15:56:36.561Z,22.40
2018-05-31T15:59:09.623Z,22.40
2018-05-31T16:01:41.972Z,22.40
2018-05-31T16:04:14.386Z,22.30
2018-05-31T16:06:47.557Z,22.30
2018-05-31T16:09:19.936Z,22.30
2018-05-31T16:11:52.295Z,22.30
2018-05-31T16:14:24.675Z,22.00
2018-05-31T16:16:56.979Z,22.10
2018-05-31T16:19:30.019Z,21.60
2018-05-31T16:22:02.363Z,21.60
2018-05-31T16:24:34.680Z,21.40
2018-05-31T16:27:06.958Z,21.10
2018-05-31T16:29:39.300Z,20.80
2018-05-31T16:32:11.726Z,20.70
2018-05-31T16:34:44.194Z,20.70
2018-05-31T16:37:17.376Z,20.90
2018-05-31T16:39:49.691Z,20.80
2018-05-31T16:42:22.051Z,20.90
2018-05-31T16:44:54.367Z,21.00
2018-05-31T16:47:26.768Z,21.10
2018-05-31T16:49:59.935Z,21.20
2018-05-31T16:52:32.429Z,21.20
2018-05-31T16:55:04.746Z,21.20
2018-05-31T16:57:37.158Z,21.20
2018-05-31T17:00:09.512Z,21.20
2018-05-31T17:02:42.014Z,21.10
2018-05-31T17:05:14.463Z,21.10
2018-05-31T17:07:47.121Z,21.30
2018-05-31T17:10:19.556Z,21.30
2018-05-31T17:12:51.885Z,21.30
2018-05-31T17:15:24.279Z,21.30
2018-05-31T17:17:56.687Z,21.20
2018-05-31T17:20:29.851Z,21.00
2018-05-31T17:23:02.353Z,21.00
2018-05-31T17:25:35.345Z,20.80
2018-05-31T17:28:08.597Z,20.90
2018-05-31T17:30:40.993Z,20.80
2018-05-31T17:33:14.055Z,21.00
2018-05-31T17:35:46.318Z,21.00
2018-05-31T17:38:18.725Z,21.00
2018-05-31T17:40:51.012Z,20.90
2018-05-31T17:43:24.110Z,20.80
2018-05-31T17:45:57.098Z,20.80
2018-05-31T17:48:30.262Z,20.60
2018-05-31T17:51:02.596Z,20.60
2018-05-31T17:53:34.941Z,20.70
2018-05-31T17:56:07.282Z,20.90
2018-05-31T17:58:39.606Z,20.80
2018-05-31T18:01:12.030Z,20.90
2018-05-31T18:14:20.203Z,20.80
2018-05-31T18:16:52.473Z,20.90
2018-05-31T18:19:24.800Z,20.90
2018-05-31T18:21:57.184Z,20.80
2018-05-31T18:24:29.506Z,20.90
2018-05-31T18:27:02.647Z,20.80
2018-05-31T18:29:35.107Z,20.80
2018-05-31T18:32:07.488Z,20.70
2018-05-31T18:34:39.841Z,20.70
2018-05-31T18:37:12.151Z,20.80
2018-05-31T18:39:51.563Z,20.60
2018-05-31T18:42:24.134Z,20.70
2018-05-31T18:44:56.641Z,20.70
2018-05-31T18:47:28.912Z,20.70
2018-05-31T18:50:01.241Z,20.70
2018-05-31T18:52:33.660Z,20.80
2018-05-31T18:55:06.136Z,20.80
2018-05-31T18:57:38.551Z,20.80
2018-05-31T19:00:11.739Z,20.90
2018-05-31T19:02:44.776Z,20.90
2018-05-31T19:05:17.101Z,20.90
2018-05-31T19:07:49.532Z,20.90
2018-05-31T19:10:21.863Z,20.90
2018-05-31T19:12:54.228Z,20.90
2018-05-31T19:15:27.432Z,20.90
2018-05-31T19:18:00.591Z,20.80
2018-05-31T19:20:32.984Z,20.80
2018-05-31T19:23:06.164Z,20.80
2018-05-31T19:25:39.400Z,20.70
2018-05-31T19:28:11.802Z,20.70
2018-05-31T19:30:44.125Z,20.80
2018-05-31T19:33:16.384Z,20.80
2018-05-31T19:35:49.727Z,20.60
2018-05-31T19:38:22.015Z,20.60
2018-05-31T19:40:54.367Z,20.60
2018-05-31T19:43:27.491Z,20.70
2018-05-31T19:45:59.870Z,20.70
2018-05-31T19:48:32.208Z,20.70
2018-05-31T19:51:04.499Z,20.70
2018-05-31T19:53:36.898Z,20.60
2018-05-31T19:56:10.062Z,20.60
2018-05-31T19:58:42.426Z,20.60
2018-05-31T20:01:14.838Z,20.60
2018-05-31T20:03:47.924Z,20.50
2018-05-31T20:06:21.152Z,20.50
2018-05-31T20:08:53.457Z,20.40
2018-05-31T20:11:25.853Z,20.50
2018-05-31T20:13:59.036Z,20.50
2018-05-31T20:16:31.540Z,20.50
2018-05-31T20:19:03.909Z,20.50
2018-05-31T20:21:36.528Z,20.50
2018-05-31T20:24:09.755Z,20.40
2018-05-31T20:26:42.088Z,20.40
2018-05-31T20:29:14.412Z,20.40
2018-05-31T20:31:46.899Z,20.30
2018-05-31T20:34:19.939Z,20.20
2018-05-31T20:36:52.322Z,20.10
2018-05-31T20:39:24.605Z,20.20
2018-05-31T20:41:57.011Z,20.20
2018-05-31T20:44:30.284Z,20.20
2018-05-31T20:47:03.144Z,20.20
2018-05-31T20:49:35.470Z,20.10
2018-05-31T20:52:07.951Z,20.10
2018-05-31T20:54:40.296Z,20.20
2018-05-31T20:57:13.485Z,20.20
2018-05-31T20:59:46.624Z,20.20
2018-05-31T21:02:19.768Z,20.20
2018-05-31T21:04:52.792Z,20.10
2018-05-31T21:07:25.144Z,20.10
2018-05-31T21:09:57.459Z,20.10
2018-05-31T21:12:29.801Z,20.10
2018-05-31T21:15:02.079Z,20.00
2018-05-31T21:17:34.585Z,20.00
2018-05-31T21:20:06.920Z,20.00
2018-05-31T21:22:39.987Z,20.00
2018-05-31T21:25:13.066Z,20.00
2018-05-31T21:27:46.177Z,20.00
2018-05-31T21:30:18.557Z,20.00
2018-05-31T21:32:50.942Z,20.00
2018-05-31T21:35:23.360Z,20.00
2018-05-31T21:37:55.700Z,20.00
2018-05-31T21:40:28.002Z,20.00
2018-05-31T21:43:00.332Z,20.00
2018-05-31T21:45:32.662Z,20.00
2018-05-31T21:48:05.034Z,20.00
2018-05-31T21:50:37.399Z,20.00
2018-05-31T21:53:10.539Z,19.90
2018-05-31T21:55:42.856Z,19.90
2018-05-31T21:58:15.152Z,19.90
2018-05-31T22:00:48.281Z,19.90
2018-05-31T22:03:20.571Z,19.80
2018-05-31T22:05:52.957Z,19.90
2018-05-31T22:08:25.291Z,19.90
2018-05-31T22:10:57.687Z,19.80
2018-05-31T22:13:30.063Z,19.80
2018-05-31T22:16:02.367Z,19.70
2018-05-31T22:18:35.509Z,19.70
2018-05-31T22:21:07.863Z,19.60
2018-05-31T22:23:40.275Z,19.60
2018-05-31T22:26:12.580Z,19.50
2018-05-31T22:28:45.701Z,19.40
2018-05-31T22:31:18.032Z,19.40
2018-05-31T22:33:50.350Z,19.40
2018-05-31T22:36:22.663Z,19.30
2018-05-31T22:38:54.940Z,19.40
2018-05-31T22:41:27.243Z,19.40
2018-05-31T22:43:59.684Z,19.30
2018-05-31T22:46:32.032Z,19.40
2018-05-31T22:49:04.480Z,19.30
2018-05-31T22:51:36.772Z,19.30
2018-05-31T22:54:09.166Z,19.20
2018-05-31T22:56:41.577Z,19.20
2018-05-31T22:59:14.777Z,19.20
2018-05-31T23:01:47.812Z,19.20
2018-05-31T23:04:20.293Z,19.10
2018-05-31T23:06:52.565Z,19.20
2018-05-31T23:09:24.868Z,19.20
2018-05-31T23:11:58.015Z,19.20
2018-05-31T23:14:30.325Z,19.20
2018-05-31T23:17:02.660Z,19.10
2018-05-31T23:19:35.103Z,19.10
2018-05-31T23:22:07.487Z,19.00
2018-05-31T23:24:39.803Z,19.00
2018-05-31T23:27:12.082Z,19.00
2018-05-31T23:29:44.468Z,19.00
2018-05-31T23:32:16.872Z,19.00
2018-05-31T23:34:49.292Z,19.00
2018-05-31T23:37:21.521Z,18.90
2018-05-31T23:39:54.574Z,18.90
2018-05-31T23:42:27.692Z,18.90
2018-05-31T23:45:00.030Z,18.90
2018-05-31T23:47:33.181Z,18.90
2018-05-31T23:50:05.486Z,18.90
2018-05-31T23:52:37.740Z,18.90
2018-05-31T23:55:10.128Z,18.80
2018-05-31T23:57:43.303Z,18.90
